sensor_id;sensor_type;location;lat;lon;timestamp;pressure;altitude;pressure_sealevel;temperature;humidity
55022;BME280;68328;35.990;-86.756;2023-11-19T00:01:02;99035.20;;;18.66;27.89
55022;BME280;68328;35.990;-86.756;2023-11-19T00:03:27;99039.82;;;18.96;27.44
55022;BME280;68328;35.990;-86.756;2023-11-19T00:05:54;99042.17;;;18.79;27.76
55022;BME280;68328;35.990;-86.756;2023-11-19T00:08:19;99039.26;;;18.74;28.18
55022;BME280;68328;35.990;-86.756;2023-11-19T00:10:43;99040.18;;;18.62;28.31
55022;BME280;68328;35.990;-86.756;2023-11-19T00:13:09;99039.47;;;18.27;28.14
55022;BME280;68328;35.990;-86.756;2023-11-19T00:15:34;99039.31;;;18.50;28.33
55022;BME280;68328;35.990;-86.756;2023-11-19T00:17:59;99044.32;;;18.43;28.40
55022;BME280;68328;35.990;-86.756;2023-11-19T00:20:24;99042.29;;;18.37;28.01
55022;BME280;68328;35.990;-86.756;2023-11-19T00:22:49;99035.46;;;18.51;28.45
55022;BME280;68328;35.990;-86.756;2023-11-19T00:25:15;99035.34;;;18.71;28.61
55022;BME280;68328;35.990;-86.756;2023-11-19T00:27:40;99033.29;;;18.35;28.74
55022;BME280;68328;35.990;-86.756;2023-11-19T00:30:08;99030.64;;;18.21;28.80
55022;BME280;68328;35.990;-86.756;2023-11-19T00:32:33;99030.40;;;18.36;28.88
55022;BME280;68328;35.990;-86.756;2023-11-19T00:34:57;99034.90;;;18.34;28.98
55022;BME280;68328;35.990;-86.756;2023-11-19T00:37:23;99036.12;;;18.05;29.07
55022;BME280;68328;35.990;-86.756;2023-11-19T00:39:48;99039.62;;;18.17;28.88
55022;BME280;68328;35.990;-86.756;2023-11-19T00:42:14;99041.59;;;17.94;29.14
55022;BME280;68328;35.990;-86.756;2023-11-19T00:44:39;99036.28;;;18.16;28.77
55022;BME280;68328;35.990;-86.756;2023-11-19T00:47:04;99037.07;;;17.95;28.82
55022;BME280;68328;35.990;-86.756;2023-11-19T00:49:29;99035.98;;;18.09;29.16
55022;BME280;68328;35.990;-86.756;2023-11-19T00:51:54;99034.87;;;17.92;28.90
55022;BME280;68328;35.990;-86.756;2023-11-19T00:54:20;99033.77;;;17.58;29.11
55022;BME280;68328;35.990;-86.756;2023-11-19T00:56:45;99029.07;;;17.73;29.21
55022;BME280;68328;35.990;-86.756;2023-11-19T00:59:11;99032.65;;;17.60;29.33
55022;BME280;68328;35.990;-86.756;2023-11-19T01:01:35;99028.51;;;17.58;29.67
55022;BME280;68328;35.990;-86.756;2023-11-19T01:04:02;99032.40;;;17.49;29.38
55022;BME280;68328;35.990;-86.756;2023-11-19T01:06:28;99038.78;;;17.48;29.42
55022;BME280;68328;35.990;-86.756;2023-11-19T01:08:51;99038.62;;;17.52;29.01
55022;BME280;68328;35.990;-86.756;2023-11-19T01:11:20;99037.28;;;17.46;29.14
55022;BME280;68328;35.990;-86.756;2023-11-19T01:13:42;99040.67;;;17.30;29.35
55022;BME280;68328;35.990;-86.756;2023-11-19T01:16:09;99039.42;;;17.17;29.48
55022;BME280;68328;35.990;-86.756;2023-11-19T01:18:34;99036.43;;;17.11;29.45
55022;BME280;68328;35.990;-86.756;2023-11-19T01:20:59;99035.52;;;17.04;29.75
55022;BME280;68328;35.990;-86.756;2023-11-19T01:23:24;99030.09;;;16.99;29.65
55022;BME280;68328;35.990;-86.756;2023-11-19T01:25:50;99027.75;;;16.93;29.76
55022;BME280;68328;35.990;-86.756;2023-11-19T01:28:15;99029.14;;;17.27;29.83
55022;BME280;68328;35.990;-86.756;2023-11-19T01:30:41;99029.13;;;16.93;30.00
55022;BME280;68328;35.990;-86.756;2023-11-19T01:33:06;99030.77;;;16.61;29.94
55022;BME280;68328;35.990;-86.756;2023-11-19T01:35:32;99037.03;;;17.00;29.86
55022;BME280;68328;35.990;-86.756;2023-11-19T01:37:57;99040.61;;;16.94;29.95
55022;BME280;68328;35.990;-86.756;2023-11-19T01:40:22;99041.66;;;16.45;29.97
55022;BME280;68328;35.990;-86.756;2023-11-19T01:42:48;99043.06;;;16.66;29.84
55022;BME280;68328;35.990;-86.756;2023-11-19T01:45:22;99041.21;;;16.89;29.90
55022;BME280;68328;35.990;-86.756;2023-11-19T01:47:39;99044.74;;;16.86;29.85
55022;BME280;68328;35.990;-86.756;2023-11-19T01:50:08;99044.83;;;16.80;29.90
55022;BME280;68328;35.990;-86.756;2023-11-19T01:52:29;99046.94;;;16.30;29.96
55022;BME280;68328;35.990;-86.756;2023-11-19T01:54:55;99049.21;;;16.71;29.36
55022;BME280;68328;35.990;-86.756;2023-11-19T01:57:22;99051.53;;;16.63;29.76
55022;BME280;68328;35.990;-86.756;2023-11-19T01:59:45;99049.08;;;16.62;29.60
55022;BME280;68328;35.990;-86.756;2023-11-19T02:02:11;99050.55;;;16.56;29.66
55022;BME280;68328;35.990;-86.756;2023-11-19T02:04:37;99049.56;;;16.47;29.63
55022;BME280;68328;35.990;-86.756;2023-11-19T02:07:01;99047.98;;;16.45;29.71
55022;BME280;68328;35.990;-86.756;2023-11-19T02:09:27;99046.28;;;16.63;29.91
55022;BME280;68328;35.990;-86.756;2023-11-19T02:11:52;99039.39;;;16.59;29.78
55022;BME280;68328;35.990;-86.756;2023-11-19T02:14:18;99031.00;;;16.48;30.06
55022;BME280;68328;35.990;-86.756;2023-11-19T02:16:43;99027.45;;;16.26;29.82
55022;BME280;68328;35.990;-86.756;2023-11-19T02:19:08;99025.21;;;16.33;29.77
55022;BME280;68328;35.990;-86.756;2023-11-19T02:21:33;99026.80;;;16.45;29.47
55022;BME280;68328;35.990;-86.756;2023-11-19T02:23:58;99027.64;;;16.06;29.57
55022;BME280;68328;35.990;-86.756;2023-11-19T02:26:28;99026.51;;;16.20;29.52
55022;BME280;68328;35.990;-86.756;2023-11-19T02:28:49;99030.56;;;16.14;29.62
55022;BME280;68328;35.990;-86.756;2023-11-19T02:31:15;99032.94;;;16.15;29.85
55022;BME280;68328;35.990;-86.756;2023-11-19T02:33:40;99028.94;;;16.11;30.02
55022;BME280;68328;35.990;-86.756;2023-11-19T02:36:06;99019.93;;;16.37;30.01
55022;BME280;68328;35.990;-86.756;2023-11-19T02:38:30;99001.45;;;16.26;29.86
55022;BME280;68328;35.990;-86.756;2023-11-19T02:40:56;98997.79;;;16.12;28.63
55022;BME280;68328;35.990;-86.756;2023-11-19T02:43:21;98999.29;;;16.10;28.40
55022;BME280;68328;35.990;-86.756;2023-11-19T02:45:47;99005.66;;;16.17;28.09
55022;BME280;68328;35.990;-86.756;2023-11-19T02:48:13;99000.72;;;16.74;27.63
55022;BME280;68328;35.990;-86.756;2023-11-19T02:50:38;98999.05;;;16.41;27.56
55022;BME280;68328;35.990;-86.756;2023-11-19T02:53:03;99001.59;;;16.50;28.38
55022;BME280;68328;35.990;-86.756;2023-11-19T02:55:28;99005.79;;;16.52;27.78
55022;BME280;68328;35.990;-86.756;2023-11-19T02:57:54;99000.08;;;16.62;27.40
55022;BME280;68328;35.990;-86.756;2023-11-19T03:00:21;98993.66;;;16.37;27.02
55022;BME280;68328;35.990;-86.756;2023-11-19T03:02:45;98998.07;;;16.56;26.90
55022;BME280;68328;35.990;-86.756;2023-11-19T03:05:10;99003.71;;;16.51;26.87
55022;BME280;68328;35.990;-86.756;2023-11-19T03:07:35;99005.66;;;16.27;26.66
55022;BME280;68328;35.990;-86.756;2023-11-19T03:10:01;99006.42;;;16.47;26.40
55022;BME280;68328;35.990;-86.756;2023-11-19T03:12:26;99010.95;;;16.49;26.45
55022;BME280;68328;35.990;-86.756;2023-11-19T03:14:52;99010.50;;;16.54;26.77
55022;BME280;68328;35.990;-86.756;2023-11-19T03:17:17;99017.58;;;16.60;26.93
55022;BME280;68328;35.990;-86.756;2023-11-19T03:19:43;99012.86;;;16.25;26.68
55022;BME280;68328;35.990;-86.756;2023-11-19T03:22:07;99015.78;;;16.66;26.02
55022;BME280;68328;35.990;-86.756;2023-11-19T03:24:33;99028.79;;;16.49;26.55
55022;BME280;68328;35.990;-86.756;2023-11-19T03:26:58;99032.26;;;16.44;26.45
55022;BME280;68328;35.990;-86.756;2023-11-19T03:29:23;99027.56;;;15.97;26.94
55022;BME280;68328;35.990;-86.756;2023-11-19T03:31:50;99021.97;;;16.48;27.23
55022;BME280;68328;35.990;-86.756;2023-11-19T03:34:15;99027.24;;;16.40;26.73
55022;BME280;68328;35.990;-86.756;2023-11-19T03:36:40;99032.58;;;16.08;27.73
55022;BME280;68328;35.990;-86.756;2023-11-19T03:39:05;99034.26;;;16.30;27.54
55022;BME280;68328;35.990;-86.756;2023-11-19T03:41:30;99035.08;;;16.25;27.30
55022;BME280;68328;35.990;-86.756;2023-11-19T03:43:57;99031.92;;;16.20;27.51
55022;BME280;68328;35.990;-86.756;2023-11-19T03:46:22;99026.16;;;16.20;28.00
55022;BME280;68328;35.990;-86.756;2023-11-19T03:48:49;99018.80;;;16.46;27.33
55022;BME280;68328;35.990;-86.756;2023-11-19T03:51:13;99016.24;;;16.17;27.42
55022;BME280;68328;35.990;-86.756;2023-11-19T03:53:39;99015.47;;;16.39;27.06
55022;BME280;68328;35.990;-86.756;2023-11-19T03:56:03;99016.53;;;16.06;27.24
55022;BME280;68328;35.990;-86.756;2023-11-19T03:58:28;99017.94;;;16.23;27.52
55022;BME280;68328;35.990;-86.756;2023-11-19T04:00:54;99014.61;;;16.22;27.63
55022;BME280;68328;35.990;-86.756;2023-11-19T04:03:19;99018.30;;;15.93;27.43
55022;BME280;68328;35.990;-86.756;2023-11-19T04:05:46;99014.55;;;15.86;27.44
55022;BME280;68328;35.990;-86.756;2023-11-19T04:08:09;99009.17;;;15.76;27.05
55022;BME280;68328;35.990;-86.756;2023-11-19T04:10:35;98997.54;;;15.90;27.13
55022;BME280;68328;35.990;-86.756;2023-11-19T04:13:00;99000.25;;;15.83;27.42
55022;BME280;68328;35.990;-86.756;2023-11-19T04:15:25;99001.23;;;15.81;27.14
55022;BME280;68328;35.990;-86.756;2023-11-19T04:17:51;99002.91;;;15.82;27.57
55022;BME280;68328;35.990;-86.756;2023-11-19T04:20:17;99009.32;;;15.57;27.99
55022;BME280;68328;35.990;-86.756;2023-11-19T04:22:42;99004.62;;;15.81;27.33
55022;BME280;68328;35.990;-86.756;2023-11-19T04:25:08;99004.05;;;15.86;26.98
55022;BME280;68328;35.990;-86.756;2023-11-19T04:27:32;99007.24;;;15.84;26.75
55022;BME280;68328;35.990;-86.756;2023-11-19T04:29:57;99012.54;;;15.80;26.74
55022;BME280;68328;35.990;-86.756;2023-11-19T04:32:23;99015.04;;;15.73;27.43
55022;BME280;68328;35.990;-86.756;2023-11-19T04:34:49;99020.65;;;15.89;27.81
55022;BME280;68328;35.990;-86.756;2023-11-19T04:37:13;99025.73;;;15.80;28.31
55022;BME280;68328;35.990;-86.756;2023-11-19T04:39:41;99029.20;;;15.72;28.67
55022;BME280;68328;35.990;-86.756;2023-11-19T04:42:06;99029.69;;;15.39;28.60
55022;BME280;68328;35.990;-86.756;2023-11-19T04:44:30;99026.52;;;15.57;28.69
55022;BME280;68328;35.990;-86.756;2023-11-19T04:46:55;99026.23;;;15.46;28.96
55022;BME280;68328;35.990;-86.756;2023-11-19T04:49:21;99028.71;;;15.31;28.87
55022;BME280;68328;35.990;-86.756;2023-11-19T04:51:46;99027.58;;;15.21;28.50
55022;BME280;68328;35.990;-86.756;2023-11-19T04:54:12;99026.89;;;15.14;28.57
55022;BME280;68328;35.990;-86.756;2023-11-19T04:56:37;99034.00;;;15.00;27.74
55022;BME280;68328;35.990;-86.756;2023-11-19T04:59:02;99035.04;;;15.25;27.53
55022;BME280;68328;35.990;-86.756;2023-11-19T05:01:27;99032.47;;;14.89;27.98
55022;BME280;68328;35.990;-86.756;2023-11-19T05:03:53;99029.16;;;14.60;28.39
55022;BME280;68328;35.990;-86.756;2023-11-19T05:06:19;99031.63;;;14.80;28.69
55022;BME280;68328;35.990;-86.756;2023-11-19T05:08:44;99032.72;;;15.04;29.01
55022;BME280;68328;35.990;-86.756;2023-11-19T05:11:09;99038.09;;;14.53;28.52
55022;BME280;68328;35.990;-86.756;2023-11-19T05:13:36;99038.30;;;14.83;28.01
55022;BME280;68328;35.990;-86.756;2023-11-19T05:16:01;99036.72;;;14.43;28.80
55022;BME280;68328;35.990;-86.756;2023-11-19T05:18:26;99035.31;;;14.83;29.10
55022;BME280;68328;35.990;-86.756;2023-11-19T05:20:51;99036.22;;;14.49;29.52
55022;BME280;68328;35.990;-86.756;2023-11-19T05:23:17;99037.10;;;14.17;29.85
55022;BME280;68328;35.990;-86.756;2023-11-19T05:25:42;99033.78;;;14.45;29.55
55022;BME280;68328;35.990;-86.756;2023-11-19T05:28:07;99032.51;;;14.33;30.26
55022;BME280;68328;35.990;-86.756;2023-11-19T05:30:33;99026.55;;;14.17;30.16
55022;BME280;68328;35.990;-86.756;2023-11-19T05:32:59;99024.16;;;14.12;30.16
55022;BME280;68328;35.990;-86.756;2023-11-19T05:35:24;99024.14;;;14.09;30.40
55022;BME280;68328;35.990;-86.756;2023-11-19T05:37:50;99036.21;;;14.09;28.96
55022;BME280;68328;35.990;-86.756;2023-11-19T05:40:15;99047.71;;;13.75;29.10
55022;BME280;68328;35.990;-86.756;2023-11-19T05:42:41;99047.18;;;14.00;29.57
55022;BME280;68328;35.990;-86.756;2023-11-19T05:45:08;99043.13;;;14.24;30.38
55022;BME280;68328;35.990;-86.756;2023-11-19T05:47:31;99040.64;;;13.80;30.50
55022;BME280;68328;35.990;-86.756;2023-11-19T05:49:58;99042.48;;;13.69;30.36
55022;BME280;68328;35.990;-86.756;2023-11-19T05:52:23;99049.39;;;13.88;30.44
55022;BME280;68328;35.990;-86.756;2023-11-19T05:54:47;99052.34;;;13.57;30.25
55022;BME280;68328;35.990;-86.756;2023-11-19T05:57:13;99049.66;;;13.54;30.41
55022;BME280;68328;35.990;-86.756;2023-11-19T05:59:38;99047.29;;;13.50;29.83
55022;BME280;68328;35.990;-86.756;2023-11-19T06:02:03;99048.33;;;13.55;30.06
55022;BME280;68328;35.990;-86.756;2023-11-19T06:04:28;99049.93;;;14.05;29.80
55022;BME280;68328;35.990;-86.756;2023-11-19T06:06:54;99053.14;;;13.72;29.62
55022;BME280;68328;35.990;-86.756;2023-11-19T06:09:20;99052.48;;;13.72;29.94
55022;BME280;68328;35.990;-86.756;2023-11-19T06:11:44;99054.51;;;13.47;30.11
55022;BME280;68328;35.990;-86.756;2023-11-19T06:14:10;99056.38;;;13.47;30.43
55022;BME280;68328;35.990;-86.756;2023-11-19T06:16:36;99060.37;;;14.03;30.54
55022;BME280;68328;35.990;-86.756;2023-11-19T06:19:01;99061.28;;;13.83;30.51
55022;BME280;68328;35.990;-86.756;2023-11-19T06:21:26;99056.74;;;13.73;29.65
55022;BME280;68328;35.990;-86.756;2023-11-19T06:23:51;99056.00;;;13.46;30.02
55022;BME280;68328;35.990;-86.756;2023-11-19T06:26:17;99055.21;;;13.69;30.09
55022;BME280;68328;35.990;-86.756;2023-11-19T06:28:42;99056.62;;;13.90;30.37
55022;BME280;68328;35.990;-86.756;2023-11-19T06:31:07;99060.36;;;13.56;29.86
55022;BME280;68328;35.990;-86.756;2023-11-19T06:33:33;99067.26;;;13.58;30.01
55022;BME280;68328;35.990;-86.756;2023-11-19T06:35:59;99069.70;;;13.26;29.80
55022;BME280;68328;35.990;-86.756;2023-11-19T06:38:24;99071.44;;;13.13;29.87
55022;BME280;68328;35.990;-86.756;2023-11-19T06:40:49;99070.21;;;13.14;30.53
55022;BME280;68328;35.990;-86.756;2023-11-19T06:43:14;99057.37;;;13.18;30.83
55022;BME280;68328;35.990;-86.756;2023-11-19T06:45:39;99051.53;;;13.18;31.08
55022;BME280;68328;35.990;-86.756;2023-11-19T06:48:05;99049.66;;;12.98;31.05
55022;BME280;68328;35.990;-86.756;2023-11-19T06:50:30;99048.19;;;13.22;30.51
55022;BME280;68328;35.990;-86.756;2023-11-19T06:52:57;99046.85;;;13.08;29.99
55022;BME280;68328;35.990;-86.756;2023-11-19T06:55:21;99043.81;;;12.95;30.13
55022;BME280;68328;35.990;-86.756;2023-11-19T06:57:46;99049.12;;;12.88;31.06
55022;BME280;68328;35.990;-86.756;2023-11-19T07:00:12;99054.19;;;12.84;31.22
55022;BME280;68328;35.990;-86.756;2023-11-19T07:02:37;99056.79;;;12.62;31.49
55022;BME280;68328;35.990;-86.756;2023-11-19T07:05:03;99049.18;;;12.80;31.39
55022;BME280;68328;35.990;-86.756;2023-11-19T07:07:28;99044.26;;;12.86;31.42
55022;BME280;68328;35.990;-86.756;2023-11-19T07:09:53;99041.36;;;13.08;31.52
55022;BME280;68328;35.990;-86.756;2023-11-19T07:12:18;99040.38;;;12.78;31.38
55022;BME280;68328;35.990;-86.756;2023-11-19T07:14:44;99035.13;;;12.72;31.29
55022;BME280;68328;35.990;-86.756;2023-11-19T07:17:09;99036.66;;;12.72;31.50
55022;BME280;68328;35.990;-86.756;2023-11-19T07:19:34;99039.96;;;12.69;31.44
55022;BME280;68328;35.990;-86.756;2023-11-19T07:22:00;99037.64;;;12.61;31.23
55022;BME280;68328;35.990;-86.756;2023-11-19T07:24:25;99033.67;;;12.79;31.41
55022;BME280;68328;35.990;-86.756;2023-11-19T07:26:52;99030.96;;;12.57;31.63
55022;BME280;68328;35.990;-86.756;2023-11-19T07:29:16;99025.84;;;12.76;31.82
55022;BME280;68328;35.990;-86.756;2023-11-19T07:31:41;99022.48;;;12.73;31.80
55022;BME280;68328;35.990;-86.756;2023-11-19T07:34:07;99024.38;;;12.44;31.80
55022;BME280;68328;35.990;-86.756;2023-11-19T07:36:33;99024.06;;;12.45;31.85
55022;BME280;68328;35.990;-86.756;2023-11-19T07:38:58;99026.50;;;12.41;31.17
55022;BME280;68328;35.990;-86.756;2023-11-19T07:41:23;99026.04;;;12.91;31.38
55022;BME280;68328;35.990;-86.756;2023-11-19T07:43:48;99025.77;;;12.47;31.47
55022;BME280;68328;35.990;-86.756;2023-11-19T07:46:14;99026.77;;;12.53;31.48
55022;BME280;68328;35.990;-86.756;2023-11-19T07:48:40;99031.12;;;12.77;31.55
55022;BME280;68328;35.990;-86.756;2023-11-19T07:51:05;99038.20;;;12.69;31.66
55022;BME280;68328;35.990;-86.756;2023-11-19T07:53:30;99038.49;;;12.36;31.68
55022;BME280;68328;35.990;-86.756;2023-11-19T07:55:55;99042.67;;;12.51;31.89
55022;BME280;68328;35.990;-86.756;2023-11-19T07:58:21;99044.25;;;12.21;32.00
55022;BME280;68328;35.990;-86.756;2023-11-19T08:00:46;99049.12;;;12.58;31.80
55022;BME280;68328;35.990;-86.756;2023-11-19T08:03:12;99050.62;;;12.26;31.83
55022;BME280;68328;35.990;-86.756;2023-11-19T08:05:36;99051.79;;;12.50;32.02
55022;BME280;68328;35.990;-86.756;2023-11-19T08:08:02;99053.08;;;11.98;31.87
55022;BME280;68328;35.990;-86.756;2023-11-19T08:10:27;99056.37;;;12.32;31.75
55022;BME280;68328;35.990;-86.756;2023-11-19T08:12:53;99053.22;;;12.23;32.03
55022;BME280;68328;35.990;-86.756;2023-11-19T08:15:19;99049.91;;;12.18;32.15
55022;BME280;68328;35.990;-86.756;2023-11-19T08:17:43;99049.18;;;12.23;32.21
55022;BME280;68328;35.990;-86.756;2023-11-19T08:20:09;99051.71;;;12.23;32.12
55022;BME280;68328;35.990;-86.756;2023-11-19T08:22:34;99052.86;;;12.45;32.02
55022;BME280;68328;35.990;-86.756;2023-11-19T08:25:00;99051.47;;;12.14;31.86
55022;BME280;68328;35.990;-86.756;2023-11-19T08:27:26;99050.48;;;12.10;32.09
55022;BME280;68328;35.990;-86.756;2023-11-19T08:29:50;99048.84;;;12.05;32.08
55022;BME280;68328;35.990;-86.756;2023-11-19T08:32:15;99040.50;;;11.99;32.18
55022;BME280;68328;35.990;-86.756;2023-11-19T08:34:41;99038.71;;;11.77;32.23
55022;BME280;68328;35.990;-86.756;2023-11-19T08:37:06;99043.88;;;12.07;32.06
55022;BME280;68328;35.990;-86.756;2023-11-19T08:39:32;99051.58;;;11.91;31.19
55022;BME280;68328;35.990;-86.756;2023-11-19T08:41:58;99054.86;;;11.67;31.16
55022;BME280;68328;35.990;-86.756;2023-11-19T08:44:22;99051.94;;;11.80;31.34
55022;BME280;68328;35.990;-86.756;2023-11-19T08:46:48;99052.52;;;11.86;31.94
55022;BME280;68328;35.990;-86.756;2023-11-19T08:49:13;99057.01;;;11.89;32.34
55022;BME280;68328;35.990;-86.756;2023-11-19T08:51:40;99055.98;;;11.65;32.24
55022;BME280;68328;35.990;-86.756;2023-11-19T08:54:05;99054.56;;;11.71;32.34
55022;BME280;68328;35.990;-86.756;2023-11-19T08:56:29;99056.78;;;11.65;31.73
55022;BME280;68328;35.990;-86.756;2023-11-19T08:58:55;99061.26;;;11.85;31.73
55022;BME280;68328;35.990;-86.756;2023-11-19T09:01:20;99063.86;;;11.50;31.42
55022;BME280;68328;35.990;-86.756;2023-11-19T09:03:45;99070.22;;;11.66;31.51
55022;BME280;68328;35.990;-86.756;2023-11-19T09:06:11;99072.54;;;11.40;31.63
55022;BME280;68328;35.990;-86.756;2023-11-19T09:08:37;99070.60;;;11.47;32.04
55022;BME280;68328;35.990;-86.756;2023-11-19T09:11:05;99073.40;;;11.43;32.03
55022;BME280;68328;35.990;-86.756;2023-11-19T09:13:27;99077.31;;;11.44;32.17
55022;BME280;68328;35.990;-86.756;2023-11-19T09:15:52;99081.83;;;11.42;32.17
55022;BME280;68328;35.990;-86.756;2023-11-19T09:18:18;99085.19;;;11.44;32.34
55022;BME280;68328;35.990;-86.756;2023-11-19T09:20:43;99086.66;;;11.42;32.37
55022;BME280;68328;35.990;-86.756;2023-11-19T09:23:09;99093.11;;;11.65;32.50
55022;BME280;68328;35.990;-86.756;2023-11-19T09:25:34;99096.70;;;11.31;32.28
55022;BME280;68328;35.990;-86.756;2023-11-19T09:27:59;99101.28;;;11.21;32.39
55022;BME280;68328;35.990;-86.756;2023-11-19T09:30:27;99102.03;;;11.15;32.62
55022;BME280;68328;35.990;-86.756;2023-11-19T09:32:50;99105.72;;;11.13;32.70
55022;BME280;68328;35.990;-86.756;2023-11-19T09:35:16;99109.28;;;11.35;32.72
55022;BME280;68328;35.990;-86.756;2023-11-19T09:37:41;99110.95;;;11.34;32.58
55022;BME280;68328;35.990;-86.756;2023-11-19T09:40:08;99109.69;;;11.31;32.66
55022;BME280;68328;35.990;-86.756;2023-11-19T09:42:38;99111.95;;;11.25;32.54
55022;BME280;68328;35.990;-86.756;2023-11-19T09:44:58;99108.86;;;11.27;32.56
55022;BME280;68328;35.990;-86.756;2023-11-19T09:47:23;99110.14;;;11.27;32.17
55022;BME280;68328;35.990;-86.756;2023-11-19T09:49:49;99111.99;;;10.98;32.16
55022;BME280;68328;35.990;-86.756;2023-11-19T09:52:15;99111.72;;;11.14;32.41
55022;BME280;68328;35.990;-86.756;2023-11-19T09:54:39;99108.12;;;11.09;32.65
55022;BME280;68328;35.990;-86.756;2023-11-19T09:57:05;99109.70;;;11.05;32.75
55022;BME280;68328;35.990;-86.756;2023-11-19T09:59:30;99106.79;;;11.08;32.81
55022;BME280;68328;35.990;-86.756;2023-11-19T10:01:56;99104.83;;;11.33;32.93
55022;BME280;68328;35.990;-86.756;2023-11-19T10:04:22;99100.86;;;11.17;32.97
55022;BME280;68328;35.990;-86.756;2023-11-19T10:06:47;99105.24;;;11.13;32.94
55022;BME280;68328;35.990;-86.756;2023-11-19T10:09:13;99108.14;;;11.04;32.54
55022;BME280;68328;35.990;-86.756;2023-11-19T10:11:37;99109.54;;;11.03;32.79
55022;BME280;68328;35.990;-86.756;2023-11-19T10:14:02;99112.30;;;11.17;32.74
55022;BME280;68328;35.990;-86.756;2023-11-19T10:16:29;99109.60;;;10.88;32.96
55022;BME280;68328;35.990;-86.756;2023-11-19T10:18:52;99110.51;;;10.90;33.04
55022;BME280;68328;35.990;-86.756;2023-11-19T10:21:18;99114.04;;;10.98;32.90
55022;BME280;68328;35.990;-86.756;2023-11-19T10:23:52;99118.71;;;10.87;32.91
55022;BME280;68328;35.990;-86.756;2023-11-19T10:26:09;99120.93;;;10.80;32.69
55022;BME280;68328;35.990;-86.756;2023-11-19T10:28:39;99119.42;;;10.75;32.88
55022;BME280;68328;35.990;-86.756;2023-11-19T10:30:59;99117.41;;;10.96;32.91
55022;BME280;68328;35.990;-86.756;2023-11-19T10:33:30;99112.84;;;10.89;33.02
55022;BME280;68328;35.990;-86.756;2023-11-19T10:35:54;99111.74;;;10.91;33.11
55022;BME280;68328;35.990;-86.756;2023-11-19T10:38:16;99104.41;;;11.02;32.98
55022;BME280;68328;35.990;-86.756;2023-11-19T10:40:41;99096.84;;;11.06;32.95
55022;BME280;68328;35.990;-86.756;2023-11-19T10:43:06;99092.80;;;11.01;32.95
55022;BME280;68328;35.990;-86.756;2023-11-19T10:45:32;99092.79;;;10.91;32.99
55022;BME280;68328;35.990;-86.756;2023-11-19T10:47:57;99090.00;;;10.81;32.97
55022;BME280;68328;35.990;-86.756;2023-11-19T10:50:22;99086.19;;;10.75;32.82
55022;BME280;68328;35.990;-86.756;2023-11-19T10:52:48;99082.13;;;10.54;33.00
55022;BME280;68328;35.990;-86.756;2023-11-19T10:55:17;99074.62;;;10.78;32.64
55022;BME280;68328;35.990;-86.756;2023-11-19T10:57:40;99072.98;;;10.67;32.84
55022;BME280;68328;35.990;-86.756;2023-11-19T11:00:05;99076.51;;;10.39;32.81
55022;BME280;68328;35.990;-86.756;2023-11-19T11:02:33;99086.36;;;10.54;33.15
55022;BME280;68328;35.990;-86.756;2023-11-19T11:04:55;99094.25;;;10.39;32.80
55022;BME280;68328;35.990;-86.756;2023-11-19T11:07:22;99095.79;;;10.62;32.69
55022;BME280;68328;35.990;-86.756;2023-11-19T11:09:46;99093.20;;;10.39;32.97
55022;BME280;68328;35.990;-86.756;2023-11-19T11:12:12;99093.57;;;10.31;33.25
55022;BME280;68328;35.990;-86.756;2023-11-19T11:14:38;99097.10;;;10.33;33.06
55022;BME280;68328;35.990;-86.756;2023-11-19T11:17:03;99099.33;;;10.35;33.21
55022;BME280;68328;35.990;-86.756;2023-11-19T11:19:27;99091.06;;;10.60;33.25
55022;BME280;68328;35.990;-86.756;2023-11-19T11:21:54;99079.86;;;10.39;33.14
55022;BME280;68328;35.990;-86.756;2023-11-19T11:24:32;99074.84;;;10.41;33.37
55022;BME280;68328;35.990;-86.756;2023-11-19T11:26:55;99073.17;;;10.38;33.26
55022;BME280;68328;35.990;-86.756;2023-11-19T11:29:14;99068.66;;;10.51;32.94
55022;BME280;68328;35.990;-86.756;2023-11-19T11:31:39;99065.91;;;10.23;32.90
55022;BME280;68328;35.990;-86.756;2023-11-19T11:36:25;99057.79;;;10.35;33.09
55022;BME280;68328;35.990;-86.756;2023-11-19T11:38:50;99061.78;;;10.51;32.91
55022;BME280;68328;35.990;-86.756;2023-11-19T11:41:19;99068.21;;;10.23;33.20
55022;BME280;68328;35.990;-86.756;2023-11-19T11:43:45;99074.97;;;10.17;33.39
55022;BME280;68328;35.990;-86.756;2023-11-19T11:46:06;99074.98;;;10.20;33.39
55022;BME280;68328;35.990;-86.756;2023-11-19T11:48:31;99067.52;;;10.16;33.56
55022;BME280;68328;35.990;-86.756;2023-11-19T11:50:58;99064.68;;;10.38;33.46
55022;BME280;68328;35.990;-86.756;2023-11-19T11:53:23;99067.90;;;10.05;33.26
55022;BME280;68328;35.990;-86.756;2023-11-19T11:55:56;99067.92;;;9.94;33.36
55022;BME280;68328;35.990;-86.756;2023-11-19T11:58:13;99067.48;;;10.13;33.42
55022;BME280;68328;35.990;-86.756;2023-11-19T12:00:40;99068.50;;;10.36;33.45
55022;BME280;68328;35.990;-86.756;2023-11-19T12:03:05;99068.76;;;9.87;33.43
55022;BME280;68328;35.990;-86.756;2023-11-19T12:05:30;99069.98;;;10.09;33.53
55022;BME280;68328;35.990;-86.756;2023-11-19T12:07:57;99079.16;;;10.06;33.59
55022;BME280;68328;35.990;-86.756;2023-11-19T12:10:21;99077.17;;;10.06;33.71
55022;BME280;68328;35.990;-86.756;2023-11-19T12:12:45;99078.92;;;9.89;33.62
55022;BME280;68328;35.990;-86.756;2023-11-19T12:15:11;99080.17;;;10.36;33.66
55022;BME280;68328;35.990;-86.756;2023-11-19T12:17:43;99084.05;;;9.84;33.62
55022;BME280;68328;35.990;-86.756;2023-11-19T12:20:02;99089.52;;;9.78;33.56
55022;BME280;68328;35.990;-86.756;2023-11-19T12:22:26;99092.78;;;9.98;33.67
55022;BME280;68328;35.990;-86.756;2023-11-19T12:24:52;99100.72;;;10.20;34.02
55022;BME280;68328;35.990;-86.756;2023-11-19T12:27:19;99105.74;;;10.23;34.33
55022;BME280;68328;35.990;-86.756;2023-11-19T12:29:43;99107.30;;;9.73;34.12
55022;BME280;68328;35.990;-86.756;2023-11-19T12:32:08;99110.97;;;10.13;34.10